sensor_id;sensor_type;location;lat;lon;timestamp;P1;durP1;ratioP1;P2;durP2;ratioP2
55065;SDS011;40964;42.114;24.220;2024-02-16T00:00:25;3.50;;;2.20;;
55065;SDS011;40964;42.114;24.220;2024-02-16T00:02:51;3.58;;;2.00;;
55065;SDS011;40964;42.114;24.220;2024-02-16T00:05:17;4.60;;;2.33;;
55065;SDS011;40964;42.114;24.220;2024-02-16T00:07:42;4.95;;;2.53;;
55065;SDS011;40964;42.114;24.220;2024-02-16T00:10:08;4.18;;;2.40;;
55065;SDS011;40964;42.114;24.220;2024-02-16T00:12:35;6.22;;;2.97;;
55065;SDS011;40964;42.114;24.220;2024-02-16T00:15:01;2.70;;;2.45;;
55065;SDS011;40964;42.114;24.220;2024-02-16T00:17:27;8.30;;;2.90;;
55065;SDS011;40964;42.114;24.220;2024-02-16T00:19:53;4.32;;;2.67;;
55065;SDS011;40964;42.114;24.220;2024-02-16T00:22:19;8.02;;;3.90;;
55065;SDS011;40964;42.114;24.220;2024-02-16T00:24:44;9.45;;;3.88;;
55065;SDS011;40964;42.114;24.220;2024-02-16T00:27:10;6.35;;;3.63;;
55065;SDS011;40964;42.114;24.220;2024-02-16T00:29:36;8.10;;;3.90;;
55065;SDS011;40964;42.114;24.220;2024-02-16T00:32:03;9.10;;;4.70;;
55065;SDS011;40964;42.114;24.220;2024-02-16T00:34:31;10.77;;;4.75;;
55065;SDS011;40964;42.114;24.220;2024-02-16T00:36:56;5.13;;;2.95;;
55065;SDS011;40964;42.114;24.220;2024-02-16T00:39:22;6.03;;;3.45;;
55065;SDS011;40964;42.114;24.220;2024-02-16T00:41:47;6.05;;;2.85;;
55065;SDS011;40964;42.114;24.220;2024-02-16T00:44:13;5.10;;;2.67;;
55065;SDS011;40964;42.114;24.220;2024-02-16T00:46:38;4.70;;;2.15;;
55065;SDS011;40964;42.114;24.220;2024-02-16T00:49:04;3.17;;;2.28;;
55065;SDS011;40964;42.114;24.220;2024-02-16T00:51:29;5.43;;;2.35;;
55065;SDS011;40964;42.114;24.220;2024-02-16T00:53:55;4.32;;;2.35;;
55065;SDS011;40964;42.114;24.220;2024-02-16T00:56:20;3.70;;;2.03;;
55065;SDS011;40964;42.114;24.220;2024-02-16T00:58:46;3.75;;;2.40;;
55065;SDS011;40964;42.114;24.220;2024-02-16T01:01:11;3.22;;;1.90;;
55065;SDS011;40964;42.114;24.220;2024-02-16T01:03:37;2.78;;;1.80;;
55065;SDS011;40964;42.114;24.220;2024-02-16T01:06:04;2.53;;;1.73;;
55065;SDS011;40964;42.114;24.220;2024-02-16T01:08:30;3.30;;;1.85;;
55065;SDS011;40964;42.114;24.220;2024-02-16T01:10:56;3.92;;;2.03;;
55065;SDS011;40964;42.114;24.220;2024-02-16T01:13:21;4.07;;;2.00;;
55065;SDS011;40964;42.114;24.220;2024-02-16T01:15:47;16.08;;;5.43;;
55065;SDS011;40964;42.114;24.220;2024-02-16T01:18:13;17.17;;;7.22;;
55065;SDS011;40964;42.114;24.220;2024-02-16T01:20:38;8.40;;;3.58;;
55065;SDS011;40964;42.114;24.220;2024-02-16T01:23:04;6.78;;;3.13;;
55065;SDS011;40964;42.114;24.220;2024-02-16T01:25:30;6.10;;;2.78;;
55065;SDS011;40964;42.114;24.220;2024-02-16T01:27:57;3.92;;;2.17;;
55065;SDS011;40964;42.114;24.220;2024-02-16T01:30:23;5.75;;;2.45;;
55065;SDS011;40964;42.114;24.220;2024-02-16T01:32:49;3.47;;;2.50;;
55065;SDS011;40964;42.114;24.220;2024-02-16T01:35:14;7.22;;;4.22;;
55065;SDS011;40964;42.114;24.220;2024-02-16T01:37:42;5.47;;;3.10;;
55065;SDS011;40964;42.114;24.220;2024-02-16T01:40:08;6.97;;;3.03;;
55065;SDS011;40964;42.114;24.220;2024-02-16T01:42:39;4.85;;;3.13;;
55065;SDS011;40964;42.114;24.220;2024-02-16T01:45:06;5.60;;;2.45;;
55065;SDS011;40964;42.114;24.220;2024-02-16T01:47:33;3.47;;;2.20;;
55065;SDS011;40964;42.114;24.220;2024-02-16T01:49:59;3.20;;;2.25;;
55065;SDS011;40964;42.114;24.220;2024-02-16T01:52:25;4.25;;;2.33;;
55065;SDS011;40964;42.114;24.220;2024-02-16T01:54:51;4.22;;;1.80;;
55065;SDS011;40964;42.114;24.220;2024-02-16T01:57:16;2.53;;;1.67;;
55065;SDS011;40964;42.114;24.220;2024-02-16T01:59:42;3.50;;;2.25;;
55065;SDS011;40964;42.114;24.220;2024-02-16T02:02:08;7.30;;;3.53;;
55065;SDS011;40964;42.114;24.220;2024-02-16T02:04:33;6.53;;;3.88;;
55065;SDS011;40964;42.114;24.220;2024-02-16T02:06:59;5.70;;;3.40;;
55065;SDS011;40964;42.114;24.220;2024-02-16T02:09:24;7.82;;;4.00;;
55065;SDS011;40964;42.114;24.220;2024-02-16T02:11:50;11.00;;;5.05;;
55065;SDS011;40964;42.114;24.220;2024-02-16T02:14:17;11.55;;;5.10;;
55065;SDS011;40964;42.114;24.220;2024-02-16T02:16:42;9.18;;;4.53;;
55065;SDS011;40964;42.114;24.220;2024-02-16T02:19:07;9.68;;;4.47;;
55065;SDS011;40964;42.114;24.220;2024-02-16T02:21:33;7.00;;;3.47;;
55065;SDS011;40964;42.114;24.220;2024-02-16T02:23:58;9.57;;;4.32;;
55065;SDS011;40964;42.114;24.220;2024-02-16T02:26:24;10.75;;;4.00;;
55065;SDS011;40964;42.114;24.220;2024-02-16T02:28:50;7.30;;;3.03;;
55065;SDS011;40964;42.114;24.220;2024-02-16T02:31:15;4.72;;;2.33;;
55065;SDS011;40964;42.114;24.220;2024-02-16T02:33:41;3.88;;;2.15;;
55065;SDS011;40964;42.114;24.220;2024-02-16T02:36:06;4.32;;;2.75;;
55065;SDS011;40964;42.114;24.220;2024-02-16T02:41:15;5.40;;;2.78;;
55065;SDS011;40964;42.114;24.220;2024-02-16T02:43:42;4.72;;;2.42;;
55065;SDS011;40964;42.114;24.220;2024-02-16T02:46:08;6.18;;;3.55;;
55065;SDS011;40964;42.114;24.220;2024-02-16T02:48:33;10.02;;;3.20;;
55065;SDS011;40964;42.114;24.220;2024-02-16T02:50:59;4.10;;;2.53;;
55065;SDS011;40964;42.114;24.220;2024-02-16T02:53:27;5.65;;;2.22;;
55065;SDS011;40964;42.114;24.220;2024-02-16T02:55:54;4.10;;;2.78;;
55065;SDS011;40964;42.114;24.220;2024-02-16T02:58:19;4.38;;;2.30;;
55065;SDS011;40964;42.114;24.220;2024-02-16T03:00:45;4.60;;;3.22;;
55065;SDS011;40964;42.114;24.220;2024-02-16T03:03:10;4.20;;;2.67;;
55065;SDS011;40964;42.114;24.220;2024-02-16T03:05:35;5.97;;;2.55;;
55065;SDS011;40964;42.114;24.220;2024-02-16T03:08:01;11.93;;;3.78;;
55065;SDS011;40964;42.114;24.220;2024-02-16T03:10:27;8.57;;;3.70;;
55065;SDS011;40964;42.114;24.220;2024-02-16T03:12:59;21.65;;;8.35;;
55065;SDS011;40964;42.114;24.220;2024-02-16T03:15:25;9.57;;;4.32;;
55065;SDS011;40964;42.114;24.220;2024-02-16T03:17:50;11.27;;;4.53;;
55065;SDS011;40964;42.114;24.220;2024-02-16T03:20:16;12.60;;;4.88;;
55065;SDS011;40964;42.114;24.220;2024-02-16T03:22:41;10.05;;;4.55;;
55065;SDS011;40964;42.114;24.220;2024-02-16T03:25:07;8.30;;;3.60;;
55065;SDS011;40964;42.114;24.220;2024-02-16T03:27:32;8.27;;;4.47;;
55065;SDS011;40964;42.114;24.220;2024-02-16T03:29:59;9.23;;;4.07;;
55065;SDS011;40964;42.114;24.220;2024-02-16T03:32:24;10.52;;;4.38;;
55065;SDS011;40964;42.114;24.220;2024-02-16T03:34:50;12.45;;;5.85;;
55065;SDS011;40964;42.114;24.220;2024-02-16T03:37:15;8.05;;;4.05;;
55065;SDS011;40964;42.114;24.220;2024-02-16T03:39:41;7.93;;;3.72;;
55065;SDS011;40964;42.114;24.220;2024-02-16T03:42:06;5.80;;;3.22;;
55065;SDS011;40964;42.114;24.220;2024-02-16T03:44:32;5.22;;;2.60;;
55065;SDS011;40964;42.114;24.220;2024-02-16T03:46:57;4.70;;;2.58;;
55065;SDS011;40964;42.114;24.220;2024-02-16T03:49:23;5.05;;;2.30;;
55065;SDS011;40964;42.114;24.220;2024-02-16T03:51:50;3.83;;;2.65;;
55065;SDS011;40964;42.114;24.220;2024-02-16T03:54:15;2.60;;;1.80;;
55065;SDS011;40964;42.114;24.220;2024-02-16T03:56:40;5.75;;;2.20;;
55065;SDS011;40964;42.114;24.220;2024-02-16T03:59:06;3.15;;;2.13;;
55065;SDS011;40964;42.114;24.220;2024-02-16T04:01:31;2.83;;;2.10;;
55065;SDS011;40964;42.114;24.220;2024-02-16T04:03:57;4.75;;;2.53;;
55065;SDS011;40964;42.114;24.220;2024-02-16T04:06:22;4.15;;;2.20;;
55065;SDS011;40964;42.114;24.220;2024-02-16T04:08:48;3.42;;;2.20;;
55065;SDS011;40964;42.114;24.220;2024-02-16T04:11:14;3.53;;;2.08;;
55065;SDS011;40964;42.114;24.220;2024-02-16T04:13:40;3.00;;;2.25;;
55065;SDS011;40964;42.114;24.220;2024-02-16T04:16:06;6.05;;;2.63;;
55065;SDS011;40964;42.114;24.220;2024-02-16T04:18:31;4.75;;;2.83;;
55065;SDS011;40964;42.114;24.220;2024-02-16T04:20:57;3.83;;;2.40;;
55065;SDS011;40964;42.114;24.220;2024-02-16T04:23:22;4.72;;;2.67;;
55065;SDS011;40964;42.114;24.220;2024-02-16T04:25:48;3.67;;;2.22;;
55065;SDS011;40964;42.114;24.220;2024-02-16T04:28:13;3.58;;;2.13;;
55065;SDS011;40964;42.114;24.220;2024-02-16T04:30:39;6.30;;;3.03;;
55065;SDS011;40964;42.114;24.220;2024-02-16T04:33:04;5.78;;;2.80;;
55065;SDS011;40964;42.114;24.220;2024-02-16T04:35:30;4.28;;;2.50;;
55065;SDS011;40964;42.114;24.220;2024-02-16T04:37:55;4.65;;;2.10;;
55065;SDS011;40964;42.114;24.220;2024-02-16T04:40:21;3.85;;;2.38;;
55065;SDS011;40964;42.114;24.220;2024-02-16T04:42:46;2.80;;;2.00;;
55065;SDS011;40964;42.114;24.220;2024-02-16T04:45:12;3.05;;;1.75;;
55065;SDS011;40964;42.114;24.220;2024-02-16T04:47:38;5.80;;;1.95;;
55065;SDS011;40964;42.114;24.220;2024-02-16T04:50:04;3.63;;;1.80;;
55065;SDS011;40964;42.114;24.220;2024-02-16T04:52:35;3.33;;;1.80;;
55065;SDS011;40964;42.114;24.220;2024-02-16T04:55:01;2.95;;;1.92;;
55065;SDS011;40964;42.114;24.220;2024-02-16T04:57:27;5.80;;;3.30;;
55065;SDS011;40964;42.114;24.220;2024-02-16T04:59:52;4.88;;;3.10;;
55065;SDS011;40964;42.114;24.220;2024-02-16T05:02:18;2.85;;;2.10;;
55065;SDS011;40964;42.114;24.220;2024-02-16T05:04:43;6.97;;;2.47;;
55065;SDS011;40964;42.114;24.220;2024-02-16T05:07:09;4.00;;;2.45;;
55065;SDS011;40964;42.114;24.220;2024-02-16T05:09:34;3.63;;;2.20;;
55065;SDS011;40964;42.114;24.220;2024-02-16T05:12:00;4.80;;;3.13;;
55065;SDS011;40964;42.114;24.220;2024-02-16T05:14:25;4.15;;;2.63;;
55065;SDS011;40964;42.114;24.220;2024-02-16T05:16:50;4.55;;;2.70;;
55065;SDS011;40964;42.114;24.220;2024-02-16T05:19:16;7.30;;;4.07;;
55065;SDS011;40964;42.114;24.220;2024-02-16T05:21:41;8.48;;;4.85;;
55065;SDS011;40964;42.114;24.220;2024-02-16T05:24:07;16.08;;;8.30;;
55065;SDS011;40964;42.114;24.220;2024-02-16T05:26:32;9.35;;;6.10;;
55065;SDS011;40964;42.114;24.220;2024-02-16T05:28:58;9.25;;;4.20;;
55065;SDS011;40964;42.114;24.220;2024-02-16T05:31:23;3.92;;;2.80;;
55065;SDS011;40964;42.114;24.220;2024-02-16T05:33:49;4.53;;;3.20;;
55065;SDS011;40964;42.114;24.220;2024-02-16T05:36:16;4.15;;;2.85;;
55065;SDS011;40964;42.114;24.220;2024-02-16T05:38:45;3.75;;;2.60;;
55065;SDS011;40964;42.114;24.220;2024-02-16T05:41:10;3.55;;;2.33;;
55065;SDS011;40964;42.114;24.220;2024-02-16T05:43:36;4.13;;;2.55;;
55065;SDS011;40964;42.114;24.220;2024-02-16T05:46:03;2.88;;;2.20;;
55065;SDS011;40964;42.114;24.220;2024-02-16T05:48:32;2.80;;;2.03;;
55065;SDS011;40964;42.114;24.220;2024-02-16T05:51:05;6.40;;;2.58;;
55065;SDS011;40964;42.114;24.220;2024-02-16T05:53:31;5.22;;;2.90;;
55065;SDS011;40964;42.114;24.220;2024-02-16T05:55:56;10.80;;;3.45;;
55065;SDS011;40964;42.114;24.220;2024-02-16T05:58:23;4.97;;;2.58;;
55065;SDS011;40964;42.114;24.220;2024-02-16T06:00:49;6.15;;;3.08;;
55065;SDS011;40964;42.114;24.220;2024-02-16T06:03:14;4.80;;;2.97;;
55065;SDS011;40964;42.114;24.220;2024-02-16T06:05:40;9.13;;;2.38;;
55065;SDS011;40964;42.114;24.220;2024-02-16T06:08:06;3.45;;;2.00;;
55065;SDS011;40964;42.114;24.220;2024-02-16T06:10:32;5.53;;;2.25;;
55065;SDS011;40964;42.114;24.220;2024-02-16T06:12:58;2.95;;;1.83;;
55065;SDS011;40964;42.114;24.220;2024-02-16T06:15:24;4.32;;;2.63;;
55065;SDS011;40964;42.114;24.220;2024-02-16T06:17:50;4.93;;;3.05;;
55065;SDS011;40964;42.114;24.220;2024-02-16T06:20:16;9.20;;;3.00;;
55065;SDS011;40964;42.114;24.220;2024-02-16T06:22:41;5.85;;;3.40;;
55065;SDS011;40964;42.114;24.220;2024-02-16T06:25:07;7.57;;;4.13;;
55065;SDS011;40964;42.114;24.220;2024-02-16T06:27:33;10.18;;;5.85;;
55065;SDS011;40964;42.114;24.220;2024-02-16T06:29:58;17.05;;;5.72;;
55065;SDS011;40964;42.114;24.220;2024-02-16T06:32:24;11.25;;;6.57;;
55065;SDS011;40964;42.114;24.220;2024-02-16T06:34:49;15.88;;;7.32;;
55065;SDS011;40964;42.114;24.220;2024-02-16T06:37:15;22.40;;;9.07;;
55065;SDS011;40964;42.114;24.220;2024-02-16T06:39:40;30.38;;;10.93;;
55065;SDS011;40964;42.114;24.220;2024-02-16T06:42:06;10.55;;;5.10;;
55065;SDS011;40964;42.114;24.220;2024-02-16T06:44:31;10.10;;;4.45;;
55065;SDS011;40964;42.114;24.220;2024-02-16T06:46:59;11.10;;;5.28;;
55065;SDS011;40964;42.114;24.220;2024-02-16T06:49:24;11.25;;;5.90;;
55065;SDS011;40964;42.114;24.220;2024-02-16T06:51:50;16.27;;;8.07;;
55065;SDS011;40964;42.114;24.220;2024-02-16T06:54:15;28.20;;;12.13;;
55065;SDS011;40964;42.114;24.220;2024-02-16T06:56:41;16.25;;;8.07;;
55065;SDS011;40964;42.114;24.220;2024-02-16T06:59:06;18.30;;;7.57;;
55065;SDS011;40964;42.114;24.220;2024-02-16T07:01:32;20.33;;;6.72;;
55065;SDS011;40964;42.114;24.220;2024-02-16T07:03:57;13.57;;;7.15;;
55065;SDS011;40964;42.114;24.220;2024-02-16T07:06:22;12.00;;;6.00;;
55065;SDS011;40964;42.114;24.220;2024-02-16T07:08:48;11.65;;;5.57;;
55065;SDS011;40964;42.114;24.220;2024-02-16T07:11:13;10.32;;;4.80;;
55065;SDS011;40964;42.114;24.220;2024-02-16T07:13:39;9.00;;;4.20;;
55065;SDS011;40964;42.114;24.220;2024-02-16T07:16:07;9.32;;;4.40;;
55065;SDS011;40964;42.114;24.220;2024-02-16T07:18:33;12.73;;;5.30;;
55065;SDS011;40964;42.114;24.220;2024-02-16T07:20:59;14.27;;;7.43;;
55065;SDS011;40964;42.114;24.220;2024-02-16T07:23:25;12.95;;;6.40;;
55065;SDS011;40964;42.114;24.220;2024-02-16T07:25:50;10.05;;;4.53;;
55065;SDS011;40964;42.114;24.220;2024-02-16T07:28:16;8.48;;;3.15;;
55065;SDS011;40964;42.114;24.220;2024-02-16T07:30:41;6.65;;;3.58;;
55065;SDS011;40964;42.114;24.220;2024-02-16T07:33:07;8.70;;;4.05;;
55065;SDS011;40964;42.114;24.220;2024-02-16T07:35:33;5.82;;;3.45;;
55065;SDS011;40964;42.114;24.220;2024-02-16T07:38:01;12.02;;;6.22;;
55065;SDS011;40964;42.114;24.220;2024-02-16T07:40:27;24.63;;;8.73;;
55065;SDS011;40964;42.114;24.220;2024-02-16T07:42:53;4.90;;;2.60;;
55065;SDS011;40964;42.114;24.220;2024-02-16T07:45:18;3.97;;;2.55;;
55065;SDS011;40964;42.114;24.220;2024-02-16T07:47:45;6.05;;;3.28;;
55065;SDS011;40964;42.114;24.220;2024-02-16T07:50:11;9.65;;;3.50;;
55065;SDS011;40964;42.114;24.220;2024-02-16T07:52:37;7.72;;;3.70;;
55065;SDS011;40964;42.114;24.220;2024-02-16T07:55:04;5.45;;;3.30;;
55065;SDS011;40964;42.114;24.220;2024-02-16T07:57:34;5.07;;;2.28;;
55065;SDS011;40964;42.114;24.220;2024-02-16T08:00:00;3.85;;;2.53;;
55065;SDS011;40964;42.114;24.220;2024-02-16T08:02:25;5.28;;;3.10;;
55065;SDS011;40964;42.114;24.220;2024-02-16T08:04:51;4.88;;;3.05;;
55065;SDS011;40964;42.114;24.220;2024-02-16T08:07:17;7.28;;;3.55;;
55065;SDS011;40964;42.114;24.220;2024-02-16T08:09:45;3.83;;;2.42;;
55065;SDS011;40964;42.114;24.220;2024-02-16T08:12:12;5.60;;;3.75;;
55065;SDS011;40964;42.114;24.220;2024-02-16T08:14:40;4.55;;;2.40;;
55065;SDS011;40964;42.114;24.220;2024-02-16T08:17:09;3.63;;;2.45;;
55065;SDS011;40964;42.114;24.220;2024-02-16T08:19:35;4.50;;;2.70;;
55065;SDS011;40964;42.114;24.220;2024-02-16T08:22:05;3.20;;;2.22;;
55065;SDS011;40964;42.114;24.220;2024-02-16T08:24:32;4.25;;;2.28;;
55065;SDS011;40964;42.114;24.220;2024-02-16T08:27:01;4.22;;;1.98;;
55065;SDS011;40964;42.114;24.220;2024-02-16T08:29:27;2.70;;;2.25;;
55065;SDS011;40964;42.114;24.220;2024-02-16T08:31:54;6.38;;;2.10;;
55065;SDS011;40964;42.114;24.220;2024-02-16T08:34:20;2.95;;;2.20;;
55065;SDS011;40964;42.114;24.220;2024-02-16T08:36:46;3.47;;;2.08;;
55065;SDS011;40964;42.114;24.220;2024-02-16T08:41:48;6.13;;;2.38;;
55065;SDS011;40964;42.114;24.220;2024-02-16T08:44:13;3.20;;;2.22;;
55065;SDS011;40964;42.114;24.220;2024-02-16T08:46:39;2.72;;;2.00;;
55065;SDS011;40964;42.114;24.220;2024-02-16T08:49:05;4.80;;;2.45;;
55065;SDS011;40964;42.114;24.220;2024-02-16T08:51:31;5.10;;;2.45;;
55065;SDS011;40964;42.114;24.220;2024-02-16T08:53:57;3.78;;;2.38;;
55065;SDS011;40964;42.114;24.220;2024-02-16T08:56:23;2.65;;;1.98;;
55065;SDS011;40964;42.114;24.220;2024-02-16T08:58:48;3.45;;;2.13;;
55065;SDS011;40964;42.114;24.220;2024-02-16T09:01:14;3.25;;;2.08;;
55065;SDS011;40964;42.114;24.220;2024-02-16T09:03:41;2.97;;;2.20;;
55065;SDS011;40964;42.114;24.220;2024-02-16T09:06:07;3.60;;;2.22;;
55065;SDS011;40964;42.114;24.220;2024-02-16T09:08:32;2.55;;;2.10;;
55065;SDS011;40964;42.114;24.220;2024-02-16T09:11:00;2.67;;;1.85;;
55065;SDS011;40964;42.114;24.220;2024-02-16T09:13:30;2.88;;;1.80;;
55065;SDS011;40964;42.114;24.220;2024-02-16T09:15:57;3.83;;;2.25;;
55065;SDS011;40964;42.114;24.220;2024-02-16T09:18:22;2.92;;;1.85;;
55065;SDS011;40964;42.114;24.220;2024-02-16T09:20:54;2.97;;;1.77;;
55065;SDS011;40964;42.114;24.220;2024-02-16T09:23:19;3.85;;;2.03;;
55065;SDS011;40964;42.114;24.220;2024-02-16T09:25:45;3.28;;;1.73;;
55065;SDS011;40964;42.114;24.220;2024-02-16T09:28:11;4.00;;;1.83;;
55065;SDS011;40964;42.114;24.220;2024-02-16T09:30:37;4.70;;;1.88;;
55065;SDS011;40964;42.114;24.220;2024-02-16T09:33:03;2.72;;;1.92;;
55065;SDS011;40964;42.114;24.220;2024-02-16T09:35:28;2.95;;;1.70;;
55065;SDS011;40964;42.114;24.220;2024-02-16T09:37:54;2.50;;;1.70;;
55065;SDS011;40964;42.114;24.220;2024-02-16T09:40:21;3.13;;;1.77;;
55065;SDS011;40964;42.114;24.220;2024-02-16T09:42:47;1.88;;;1.40;;
55065;SDS011;40964;42.114;24.220;2024-02-16T09:45:16;2.20;;;1.70;;
55065;SDS011;40964;42.114;24.220;2024-02-16T09:47:43;2.67;;;1.83;;
55065;SDS011;40964;42.114;24.220;2024-02-16T09:50:09;3.08;;;1.98;;
55065;SDS011;40964;42.114;24.220;2024-02-16T09:52:35;2.42;;;1.55;;
55065;SDS011;40964;42.114;24.220;2024-02-16T09:55:02;3.05;;;1.92;;
55065;SDS011;40964;42.114;24.220;2024-02-16T09:57:27;2.15;;;1.60;;
55065;SDS011;40964;42.114;24.220;2024-02-16T09:59:53;3.30;;;2.35;;
55065;SDS011;40964;42.114;24.220;2024-02-16T10:02:18;3.45;;;1.98;;
55065;SDS011;40964;42.114;24.220;2024-02-16T10:04:44;3.10;;;1.90;;
55065;SDS011;40964;42.114;24.220;2024-02-16T10:07:09;3.03;;;2.13;;
55065;SDS011;40964;42.114;24.220;2024-02-16T10:09:35;2.40;;;2.05;;
55065;SDS011;40964;42.114;24.220;2024-02-16T10:12:00;3.28;;;1.90;;
55065;SDS011;40964;42.114;24.220;2024-02-16T10:14:26;3.55;;;2.20;;
55065;SDS011;40964;42.114;24.220;2024-02-16T10:17:03;2.58;;;1.85;;
55065;SDS011;40964;42.114;24.220;2024-02-16T10:19:30;2.70;;;1.83;;
55065;SDS011;40964;42.114;24.220;2024-02-16T10:22:07;3.60;;;2.13;;
55065;SDS011;40964;42.114;24.220;2024-02-16T10:24:35;3.70;;;2.10;;
55065;SDS011;40964;42.114;24.220;2024-02-16T10:27:04;3.17;;;2.42;;
55065;SDS011;40964;42.114;24.220;2024-02-16T10:29:31;2.88;;;1.95;;
55065;SDS011;40964;42.114;24.220;2024-02-16T10:31:59;2.40;;;1.80;;
55065;SDS011;40964;42.114;24.220;2024-02-16T10:34:24;2.85;;;2.10;;
55065;SDS011;40964;42.114;24.220;2024-02-16T10:37:09;2.20;;;2.00;;
55065;SDS011;40964;42.114;24.220;2024-02-16T10:39:35;2.72;;;1.83;;
55065;SDS011;40964;42.114;24.220;2024-02-16T10:42:03;2.45;;;1.80;;
55065;SDS011;40964;42.114;24.220;2024-02-16T10:44:31;2.97;;;2.20;;
55065;SDS011;40964;42.114;24.220;2024-02-16T10:46:57;2.35;;;1.85;;
55065;SDS011;40964;42.114;24.220;2024-02-16T10:49:24;2.25;;;1.92;;
55065;SDS011;40964;42.114;24.220;2024-02-16T10:51:51;3.50;;;2.20;;
55065;SDS011;40964;42.114;24.220;2024-02-16T10:54:22;3.50;;;2.30;;
55065;SDS011;40964;42.114;24.220;2024-02-16T10:56:54;4.78;;;2.10;;
55065;SDS011;40964;42.114;24.220;2024-02-16T10:59:20;3.30;;;2.28;;
55065;SDS011;40964;42.114;24.220;2024-02-16T11:01:45;3.67;;;2.10;;
55065;SDS011;40964;42.114;24.220;2024-02-16T11:04:16;3.63;;;2.70;;
55065;SDS011;40964;42.114;24.220;2024-02-16T11:06:52;3.65;;;2.10;;
55065;SDS011;40964;42.114;24.220;2024-02-16T11:09:23;3.35;;;2.05;;
55065;SDS011;40964;42.114;24.220;2024-02-16T11:11:54;2.83;;;1.63;;
55065;SDS011;40964;42.114;24.220;2024-02-16T11:14:23;2.33;;;1.90;;
55065;SDS011;40964;42.114;24.220;2024-02-16T11:16:53;2.85;;;1.60;;
55065;SDS011;40964;42.114;24.220;2024-02-16T11:19:19;2.30;;;1.40;;
55065;SDS011;40964;42.114;24.220;2024-02-16T11:21:56;1.77;;;1.50;;
55065;SDS011;40964;42.114;24.220;2024-02-16T11:24:31;2.67;;;1.67;;
55065;SDS011;40964;42.114;24.220;2024-02-16T11:26:57;3.08;;;1.85;;
55065;SDS011;40964;42.114;24.220;2024-02-16T11:29:23;2.45;;;1.88;;
55065;SDS011;40964;42.114;24.220;2024-02-16T11:31:50;4.38;;;2.22;;
55065;SDS011;40964;42.114;24.220;2024-02-16T11:34:25;5.50;;;1.80;;
55065;SDS011;40964;42.114;24.220;2024-02-16T11:37:09;1.83;;;1.52;;
55065;SDS011;40964;42.114;24.220;2024-02-16T11:42:13;3.53;;;1.55;;
55065;SDS011;40964;42.114;24.220;2024-02-16T11:44:53;3.35;;;1.80;;
55065;SDS011;40964;42.114;24.220;2024-02-16T11:47:20;3.08;;;2.00;;
55065;SDS011;40964;42.114;24.220;2024-02-16T11:49:59;3.53;;;2.25;;
55065;SDS011;40964;42.114;24.220;2024-02-16T11:52:38;1.95;;;1.75;;
55065;SDS011;40964;42.114;24.220;2024-02-16T11:55:04;1.67;;;1.52;;
55065;SDS011;40964;42.114;24.220;2024-02-16T11:57:33;3.25;;;2.05;;
55065;SDS011;40964;42.114;24.220;2024-02-16T12:00:00;5.82;;;3.45;;
55065;SDS011;40964;42.114;24.220;2024-02-16T12:02:29;2.33;;;1.90;;
55065;SDS011;40964;42.114;24.220;2024-02-16T12:05:00;3.25;;;2.15;;
55065;SDS011;40964;42.114;24.220;2024-02-16T12:07:26;3.15;;;1.90;;
55065;SDS011;40964;42.114;24.220;2024-02-16T12:09:58;2.85;;;2.20;;
55065;SDS011;40964;42.114;24.220;2024-02-16T12:12:25;3.92;;;2.08;;
55065;SDS011;40964;42.114;24.220;2024-02-16T12:14:52;2.33;;;1.80;;
55065;SDS011;40964;42.114;24.220;2024-02-16T12:17:18;4.45;;;2.28;;
55065;SDS011;40964;42.114;24.220;2024-02-16T12:19:44;1.85;;;1.75;;
55065;SDS011;40964;42.114;24.220;2024-02-16T12:22:11;2.53;;;2.15;;
55065;SDS011;40964;42.114;24.220;2024-02-16T12:24:41;3.08;;;2.05;;
55065;SDS011;40964;42.114;24.220;2024-02-16T12:27:07;2.42;;;1.85;;
55065;SDS011;40964;42.114;24.220;2024-02-16T12:29:32;2.70;;;1.85;;
55065;SDS011;40964;42.114;24.220;2024-02-16T12:31:58;3.17;;;2.15;;
55065;SDS011;40964;42.114;24.220;2024-02-16T12:34:24;2.90;;;2.03;;
55065;SDS011;40964;42.114;24.220;2024-02-16T12:36:50;3.53;;;2.30;;
55065;SDS011;40964;42.114;24.220;2024-02-16T12:39:16;1.90;;;1.70;;
55065;SDS011;40964;42.114;24.220;2024-02-16T12:41:41;2.55;;;2.10;;
55065;SDS011;40964;42.114;24.220;2024-02-16T12:44:08;2.47;;;1.70;;
55065;SDS011;40964;42.114;24.220;2024-02-16T12:46:33;2.20;;;1.80;;
55065;SDS011;40964;42.114;24.220;2024-02-16T12:48:59;3.22;;;1.80;;
55065;SDS011;40964;42.114;24.220;2024-02-16T12:51:24;2.05;;;1.75;;
55065;SDS011;40964;42.114;24.220;2024-02-16T12:53:50;3.92;;;2.55;;
55065;SDS011;40964;42.114;24.220;2024-02-16T12:56:16;3.42;;;2.00;;
55065;SDS011;40964;42.114;24.220;2024-02-16T12:58:42;2.58;;;1.92;;
55065;SDS011;40964;42.114;24.220;2024-02-16T13:01:07;3.95;;;2.20;;
55065;SDS011;40964;42.114;24.220;2024-02-16T13:03:37;3.67;;;2.08;;
55065;SDS011;40964;42.114;24.220;2024-02-16T13:06:04;2.47;;;1.65;;
55065;SDS011;40964;42.114;24.220;2024-02-16T13:08:30;3.83;;;2.38;;
55065;SDS011;40964;42.114;24.220;2024-02-16T13:10:56;3.08;;;2.30;;
55065;SDS011;40964;42.114;24.220;2024-02-16T13:13:22;5.13;;;2.47;;
55065;SDS011;40964;42.114;24.220;2024-02-16T13:15:48;3.38;;;2.13;;
55065;SDS011;40964;42.114;24.220;2024-02-16T13:18:14;2.40;;;2.08;;
55065;SDS011;40964;42.114;24.220;2024-02-16T13:20:40;3.13;;;2.10;;
55065;SDS011;40964;42.114;24.220;2024-02-16T13:23:05;5.32;;;2.67;;
55065;SDS011;40964;42.114;24.220;2024-02-16T13:25:31;6.50;;;2.75;;
55065;SDS011;40964;42.114;24.220;2024-02-16T13:27:56;3.47;;;2.47;;
55065;SDS011;40964;42.114;24.220;2024-02-16T13:30:22;5.80;;;2.40;;
55065;SDS011;40964;42.114;24.220;2024-02-16T13:32:47;2.30;;;1.90;;
55065;SDS011;40964;42.114;24.220;2024-02-16T13:35:13;3.70;;;2.22;;
55065;SDS011;40964;42.114;24.220;2024-02-16T13:37:39;6.25;;;3.40;;
55065;SDS011;40964;42.114;24.220;2024-02-16T13:40:06;4.80;;;2.60;;
55065;SDS011;40964;42.114;24.220;2024-02-16T13:42:36;7.07;;;3.30;;
55065;SDS011;40964;42.114;24.220;2024-02-16T13:45:06;5.85;;;2.67;;
55065;SDS011;40964;42.114;24.220;2024-02-16T13:47:32;3.55;;;2.80;;
55065;SDS011;40964;42.114;24.220;2024-02-16T13:49:57;3.67;;;2.50;;
55065;SDS011;40964;42.114;24.220;2024-02-16T13:52:24;3.60;;;2.47;;
55065;SDS011;40964;42.114;24.220;2024-02-16T13:54:50;3.05;;;2.20;;
55065;SDS011;40964;42.114;24.220;2024-02-16T13:57:15;2.83;;;1.90;;
55065;SDS011;40964;42.114;24.220;2024-02-16T13:59:42;3.08;;;2.25;;
55065;SDS011;40964;42.114;24.220;2024-02-16T14:02:08;3.47;;;2.15;;
55065;SDS011;40964;42.114;24.220;2024-02-16T14:04:34;3.53;;;2.58;;
55065;SDS011;40964;42.114;24.220;2024-02-16T14:07:01;4.22;;;2.50;;
55065;SDS011;40964;42.114;24.220;2024-02-16T14:09:29;2.78;;;1.70;;
55065;SDS011;40964;42.114;24.220;2024-02-16T14:11:54;2.80;;;2.28;;
55065;SDS011;40964;42.114;24.220;2024-02-16T14:14:23;4.15;;;2.50;;
55065;SDS011;40964;42.114;24.220;2024-02-16T14:16:48;3.05;;;2.38;;
55065;SDS011;40964;42.114;24.220;2024-02-16T14:19:14;4.90;;;2.63;;
55065;SDS011;40964;42.114;24.220;2024-02-16T14:21:39;7.50;;;3.10;;
55065;SDS011;40964;42.114;24.220;2024-02-16T14:24:05;4.18;;;2.70;;
55065;SDS011;40964;42.114;24.220;2024-02-16T14:26:30;6.07;;;3.00;;
55065;SDS011;40964;42.114;24.220;2024-02-16T14:28:56;4.95;;;3.40;;
55065;SDS011;40964;42.114;24.220;2024-02-16T14:31:22;7.05;;;3.10;;
55065;SDS011;40964;42.114;24.220;2024-02-16T14:33:48;6.20;;;3.20;;
55065;SDS011;40964;42.114;24.220;2024-02-16T14:36:14;4.68;;;2.67;;